Time;durP1;ratioP1;P1;durP2;ratioP2;P2;SDS_P1;SDS_P2;PMS_P1;PMS_P2;Temp;Humidity;BMP_temperature;BMP_pressure;BME280_temperature;BME280_humidity;BME280_pressure;Samples;Min_cycle;Max_cycle;Signal;HPM_P1;HPM_P2
2021/04/28 00:02:17;;;;;;;10.38;8.05;;;11.70;99.90;;;11.97;42.41;100627.59;5074623;28;20052;-75
2021/04/28 00:04:45;;;;;;;11.77;7.90;;;11.70;99.90;;;11.84;42.29;100620.72;5074260;28;20489;-74
2021/04/28 00:07:12;;;;;;;8.82;7.55;;;11.60;99.90;;;11.85;42.51;100620.69;5074233;28;20040;-75
2021/04/28 00:09:40;;;;;;;12.27;9.30;;;11.60;99.90;;;11.81;42.52;100621.63;5074156;28;20044;-74
2021/04/28 00:12:09;;;;;;;10.75;8.02;;;11.50;99.90;;;11.79;42.53;100616.38;5072716;28;20048;-75
2021/04/28 00:14:36;;;;;;;11.27;8.57;;;11.50;99.90;;;11.75;42.55;100612.00;5073845;28;20450;-74
2021/04/28 00:17:04;;;;;;;9.48;8.38;;;11.50;99.90;;;11.64;42.34;100608.59;5073783;28;20052;-74
2021/04/28 00:19:33;;;;;;;10.27;7.55;;;11.50;99.90;;;11.69;42.72;100608.56;5074019;28;20074;-75
2021/04/28 00:22:00;;;;;;;8.93;8.00;;;11.40;99.90;;;11.73;42.58;100607.59;5073723;28;20105;-74
2021/04/28 00:24:27;;;;;;;11.23;8.50;;;11.50;99.90;;;11.73;42.66;100602.31;5073639;28;20040;-74
2021/04/28 00:26:55;;;;;;;12.10;8.90;;;11.50;99.90;;;11.70;42.65;100595.31;5072557;28;20162;-74
2021/04/28 00:29:23;;;;;;;11.65;7.85;;;11.50;99.90;;;11.73;42.58;100600.53;5073549;28;20041;-74
2021/04/28 00:31:51;;;;;;;11.32;7.80;;;11.50;99.90;;;11.13;42.44;100489.22;5073771;28;20119;-74
2021/04/28 00:34:19;;;;;;;11.32;7.80;;;11.50;99.90;;;11.74;42.31;100599.66;5072715;28;20044;-74
2021/04/28 00:36:47;;;;;;;13.27;8.13;;;11.50;99.90;;;11.72;42.34;100597.91;5073670;28;20379;-74
2021/04/28 00:39:14;;;;;;;9.90;8.05;;;11.50;99.90;;;11.69;42.25;100596.19;5073574;28;20033;-75
2021/04/28 00:41:43;;;;;;;10.15;8.60;;;11.40;99.90;;;11.77;42.15;100596.97;5073551;28;20486;-74
2021/04/28 00:44:11;;;;;;;12.23;8.57;;;11.50;99.90;;;11.15;42.24;100479.50;5072154;28;20063;-75
2021/04/28 00:46:40;;;;;;;9.60;8.80;;;11.50;99.90;;;11.77;42.09;100583.72;5072204;28;20055;-74
2021/04/28 00:49:08;;;;;;;10.23;8.95;;;11.50;99.90;;;11.79;42.25;100587.22;5071775;28;20124;-74
2021/04/28 00:51:35;;;;;;;12.48;8.80;;;11.50;99.90;;;11.80;42.23;100580.16;5072250;28;20424;-74
2021/04/28 00:54:05;;;;;;;10.25;8.30;;;11.50;99.90;;;11.73;41.93;100574.03;5072045;28;20048;-74
2021/04/28 00:56:33;;;;;;;10.98;8.63;;;11.50;99.90;;;11.62;42.46;100573.28;5073385;28;20135;-74
2021/04/28 00:59:01;;;;;;;14.60;8.70;;;11.40;99.90;;;11.61;42.43;100568.88;5072007;28;20115;-75
2021/04/28 01:01:28;;;;;;;15.43;8.07;;;11.40;99.90;;;11.59;42.64;100573.31;5071245;28;20135;-75
2021/04/28 01:03:57;;;;;;;10.20;8.68;;;11.30;99.90;;;11.41;42.87;100562.09;5071628;28;20052;-75
2021/04/28 01:06:25;;;;;;;9.35;8.45;;;11.20;99.90;;;11.51;43.18;100569.91;5073315;28;20478;-74
2021/04/28 01:08:54;;;;;;;10.57;8.90;;;11.20;99.90;;;11.51;43.40;100561.97;5073086;28;20127;-74
2021/04/28 01:11:23;;;;;;;12.70;9.20;;;11.20;99.90;;;11.49;43.45;100561.13;5071314;28;20139;-74
2021/04/28 01:13:57;;;;;;;15.15;8.32;;;11.30;99.90;;;11.55;43.22;100565.47;5072914;28;20131;-75
2021/04/28 01:16:25;;;;;;;10.30;7.40;;;11.30;99.90;;;11.56;43.13;100561.88;5071529;28;20075;-74
2021/04/28 01:18:55;;;;;;;11.18;8.95;;;11.30;99.90;;;11.57;43.14;100558.38;5072592;28;20493;-74
2021/04/28 01:21:23;;;;;;;12.43;9.00;;;11.30;99.90;;;11.55;43.03;100550.44;5072736;28;20049;-74
2021/04/28 01:23:51;;;;;;;10.95;8.30;;;11.30;99.90;;;11.60;42.97;100553.91;5072720;28;20044;-74
2021/04/28 01:26:21;;;;;;;10.93;8.77;;;11.30;99.90;;;11.68;42.93;100549.41;5071442;28;20068;-75
2021/04/28 01:28:50;;;;;;;10.77;8.30;;;11.40;99.90;;;11.62;42.88;100536.22;5071460;28;20072;-75
2021/04/28 01:31:22;;;;;;;13.60;8.75;;;11.40;99.90;;;11.64;42.83;100557.38;5072527;28;20037;-75
2021/04/28 01:33:57;;;;;;;11.75;7.88;;;11.40;99.90;;;11.63;43.01;100555.63;5071266;28;20135;-75
2021/04/28 01:36:33;;;;;;;11.25;8.90;;;11.30;99.90;;;11.61;42.73;100550.34;5071392;28;20395;-74
2021/04/28 01:39:07;;;;;;;10.55;8.80;;;11.30;99.90;;;11.64;43.03;100550.31;5072602;28;20052;-75
2021/04/28 01:41:40;;;;;;;13.60;8.85;;;11.40;99.90;;;11.67;42.82;100550.28;5071188;28;20490;-74
2021/04/28 01:44:13;;;;;;;12.73;8.20;;;11.40;99.90;;;11.72;42.57;100561.72;5072611;28;20051;-74
2021/04/28 01:46:42;;;;;;;10.77;8.80;;;11.40;99.90;;;11.68;42.63;100552.06;5071214;28;20082;-75
2021/04/28 01:49:11;;;;;;;10.27;9.07;;;11.40;99.90;;;11.71;42.74;100551.16;5070810;28;20336;-74
2021/04/28 01:51:41;;;;;;;9.70;8.70;;;11.40;99.90;;;11.76;42.39;100550.19;5071097;28;20458;-74
2021/04/28 01:54:19;;;;;;;11.43;8.35;;;11.40;99.90;;;11.69;42.29;100548.50;5071038;28;20402;-75
2021/04/28 01:56:50;;;;;;;9.18;8.10;;;11.40;99.90;;;11.73;42.39;100550.19;5071394;28;20052;-75
2021/04/28 01:59:31;;;;;;;9.27;8.32;;;11.40;99.90;;;11.72;42.76;100543.16;5072020;28;20493;-74
2021/04/28 02:02:04;;;;;;;11.52;8.45;;;11.50;99.90;;;11.78;42.63;100540.44;5072068;28;20048;-74
2021/04/28 02:04:38;;;;;;;11.18;9.18;;;11.50;99.90;;;11.73;42.78;100542.25;5070771;28;20114;-74
2021/04/28 02:07:06;;;;;;;10.30;9.02;;;11.50;99.90;;;11.78;43.00;100544.84;5071954;28;20045;-74
2021/04/28 02:09:35;;;;;;;9.85;8.85;;;11.50;99.90;;;11.73;42.49;100536.94;5070885;28;20045;-75
2021/04/28 02:12:06;;;;;;;9.40;8.40;;;11.40;99.90;;;11.73;42.54;100544.03;5070810;28;20048;-75
2021/04/28 02:14:40;;;;;;;10.23;8.82;;;11.40;99.90;;;11.71;42.85;100533.44;5074039;28;20072;-74
2021/04/28 02:17:29;;;;;;;10.02;8.75;;;11.40;99.90;;;11.71;42.82;100544.06;5075822;28;20041;-74
2021/04/28 02:20:00;;;;;;;12.20;9.65;;;11.40;99.90;;;11.76;42.71;100533.41;5074955;28;20044;-75
2021/04/28 02:22:37;;;;;;;14.95;8.95;;;11.50;99.90;;;11.66;43.00;100532.66;5074912;28;20041;-74
2021/04/28 02:25:23;;;;;;;12.43;8.77;;;11.40;99.90;;;11.58;43.20;100534.50;5076200;28;20044;-75
2021/04/28 02:28:01;;;;;;;10.90;8.65;;;11.30;99.90;;;11.65;43.18;100524.69;5074899;28;20347;-74
2021/04/28 02:30:32;;;;;;;10.25;9.25;;;11.30;99.90;;;11.64;43.24;100521.16;5076160;28;20048;-74
2021/04/28 02:33:01;;;;;;;10.73;9.60;;;11.30;99.90;;;11.64;43.19;100522.94;5075964;28;20137;-74
2021/04/28 02:35:47;;;;;;;9.35;8.40;;;11.30;99.90;;;11.61;43.21;100525.63;5075785;28;20055;-74
2021/04/28 02:38:29;;;;;;;14.90;9.20;;;11.30;99.90;;;11.51;43.69;100516.94;5074663;28;20102;-74
2021/04/28 02:41:17;;;;;;;11.68;9.18;;;11.20;99.90;;;11.53;43.34;100512.50;5074544;28;20148;-74
2021/04/28 02:43:47;;;;;;;12.00;9.07;;;11.20;99.90;;;11.54;43.24;100513.34;5075412;28;20098;-74
2021/04/28 02:46:21;;;;;;;13.38;8.77;;;11.30;99.90;;;11.53;43.65;100504.56;5074505;28;20052;-74
2021/04/28 02:48:54;;;;;;;11.82;9.35;;;11.20;99.90;;;11.52;43.72;100508.09;5075408;28;20553;-74
2021/04/28 02:51:37;;;;;;;12.02;9.20;;;11.30;99.90;;;11.18;43.43;100455.63;5075661;28;20054;-74
2021/04/28 02:54:16;;;;;;;9.65;8.65;;;11.20;99.90;;;11.41;43.25;100503.84;5091141;28;20040;-74
2021/04/28 02:56:47;;;;;;;13.30;9.35;;;11.20;99.90;;;11.38;43.60;100503.91;5074240;28;20068;-74
2021/04/28 02:59:16;;;;;;;12.15;8.77;;;11.10;99.90;;;11.42;43.88;100503.81;5091159;28;20041;-74
2021/04/28 03:01:45;;;;;;;10.93;8.47;;;11.10;99.90;;;11.33;43.64;100503.94;5074231;28;20050;-75
2021/04/28 03:04:15;;;;;;;13.98;9.68;;;11.10;99.90;;;11.35;43.58;100499.50;5090692;28;20326;-74
2021/04/28 03:07:01;;;;;;;13.70;9.43;;;11.10;99.90;;;11.31;44.05;100497.78;5075486;28;20178;-75
2021/04/28 03:09:30;;;;;;;11.82;9.15;;;11.00;99.90;;;11.32;43.96;100498.69;5074243;28;20067;-75
2021/04/28 03:11:58;;;;;;;11.70;9.60;;;11.00;99.90;;;11.30;44.38;100495.19;5073886;28;20093;-74
2021/04/28 03:14:30;;;;;;;11.88;9.35;;;11.00;99.90;;;11.27;43.96;100496.09;5073629;28;20234;-74
2021/04/28 03:16:58;;;;;;;11.27;9.13;;;11.00;99.90;;;11.28;43.97;100492.56;5074906;28;20453;-74
2021/04/28 03:19:27;;;;;;;13.57;9.45;;;10.90;99.90;;;11.21;44.10;100484.69;5073794;28;20063;-75
2021/04/28 03:21:55;;;;;;;11.40;9.63;;;10.90;99.90;;;11.20;44.06;100482.94;5075094;28;20040;-74
2021/04/28 03:24:24;;;;;;;13.13;9.98;;;11.00;99.90;;;11.08;44.36;100476.03;5073155;28;20045;-74
2021/04/28 03:26:53;;;;;;;12.10;9.02;;;10.90;99.90;;;10.53;44.04;100369.19;5074129;28;20048;-75
2021/04/28 03:29:23;;;;;;;13.23;10.02;;;10.90;99.90;;;11.11;44.49;100489.22;5073730;28;20135;-75
2021/04/28 03:31:51;;;;;;;11.80;10.18;;;10.80;99.90;;;11.09;44.52;100480.44;5073546;28;20539;-76
2021/04/28 03:34:19;;;;;;;11.35;9.40;;;10.80;99.90;;;10.99;44.75;100483.22;5073524;28;20052;-74
2021/04/28 03:36:46;;;;;;;12.45;9.82;;;10.70;99.90;;;11.04;44.84;100487.56;5073515;28;20474;-74
2021/04/28 03:39:17;;;;;;;13.02;8.82;;;10.70;99.90;;;11.05;44.85;100491.09;5073497;28;20048;-74
2021/04/28 03:41:45;;;;;;;15.68;10.27;;;10.70;99.90;;;11.05;44.67;100483.16;5074650;28;20041;-74
2021/04/28 03:44:12;;;;;;;11.43;9.23;;;10.70;99.90;;;11.04;45.00;100490.22;5073198;28;20432;-74
2021/04/28 03:46:42;;;;;;;11.52;10.50;;;10.70;99.90;;;10.96;45.04;100484.13;5073274;28;20405;-74
2021/04/28 03:49:10;;;;;;;10.77;9.55;;;10.70;99.90;;;10.92;45.11;100490.34;5074492;28;20048;-74
2021/04/28 03:51:37;;;;;;;11.45;9.80;;;10.60;99.90;;;10.92;44.95;100494.78;5073269;28;20032;-74
2021/04/28 03:54:15;;;;;;;13.18;9.70;;;10.60;99.90;;;10.22;45.03;100378.34;5074526;28;20053;-74
2021/04/28 03:56:45;;;;;;;10.63;8.85;;;10.60;99.90;;;10.85;45.10;100488.69;5073104;28;20057;-74
2021/04/28 03:59:14;;;;;;;11.15;9.35;;;10.50;99.90;;;10.85;45.15;100502.81;5073385;28;20079;-74
2021/04/28 04:01:43;;;;;;;13.05;9.50;;;10.50;99.90;;;10.75;45.68;100484.38;5073018;28;20394;-74
2021/04/28 04:04:11;;;;;;;12.07;9.82;;;10.50;99.90;;;10.65;46.28;100485.38;5072994;28;20048;-75
2021/04/28 04:07:11;;;;;;;11.90;9.40;;;10.40;99.90;;;10.60;45.69;100488.09;5061756;28;20490;-71
2021/04/28 04:10:07;;;;;;;10.38;9.32;;;10.40;99.90;;;10.61;46.06;100478.38;5106760;28;20383;-74
2021/04/28 04:12:35;;;;;;;14.75;9.90;;;10.30;99.90;;;10.59;45.57;100480.16;5072393;28;20456;-75
2021/04/28 04:15:07;;;;;;;13.15;9.73;;;10.30;99.90;;;10.56;45.54;100482.84;5072713;28;20130;-72
2021/04/28 04:17:36;;;;;;;14.32;9.63;;;10.30;99.90;;;10.62;45.80;100472.19;5072665;28;20167;-71
2021/04/28 04:20:19;;;;;;;11.27;9.48;;;10.30;99.90;;;10.54;45.93;100472.28;5072389;28;20064;-77
2021/04/28 04:22:51;;;;;;;14.10;9.80;;;10.30;99.90;;;10.51;45.90;100471.44;5072546;28;20510;-72
2021/04/28 04:25:37;;;;;;;13.38;10.15;;;10.20;99.90;;;10.47;46.15;100472.38;5073558;28;20071;-73
2021/04/28 04:28:05;;;;;;;15.82;10.55;;;10.20;99.90;;;10.43;46.06;100466.22;5073814;28;20098;-73
2021/04/28 04:30:52;;;;;;;14.00;9.82;;;10.10;99.90;;;10.36;46.06;100463.66;5073640;28;20055;-73
2021/04/28 04:33:39;;;;;;;12.80;9.85;;;10.10;99.90;;;10.47;46.16;100467.94;5073449;28;20040;-73
2021/04/28 04:36:26;;;;;;;13.80;10.85;;;10.20;99.90;;;10.47;45.97;100469.72;5073244;28;20051;-73
2021/04/28 04:39:32;;;;;;;15.30;10.15;;;10.20;99.90;;;10.47;46.18;100464.44;5051010;28;20112;-74
2021/04/28 04:42:38;;;;;;;12.25;9.93;;;10.20;99.90;;;10.39;46.38;100461.00;5039845;28;20065;-74
2021/04/28 04:45:26;;;;;;;12.02;10.02;;;10.20;99.90;;;10.42;46.38;100463.59;5071314;28;20071;-74
2021/04/28 04:47:53;;;;;;;14.55;10.65;;;10.20;99.90;;;10.47;46.07;100459.16;5073488;28;20040;-74
2021/04/28 04:50:21;;;;;;;18.98;10.25;;;10.20;99.90;;;10.51;46.35;100463.50;5073489;28;20053;-73
2021/04/28 04:52:49;;;;;;;18.30;10.45;;;10.20;99.90;;;10.57;46.39;100463.41;5073229;28;20070;-74
2021/04/28 04:55:20;;;;;;;11.77;9.18;;;10.30;99.90;;;10.63;46.27;100463.34;5073251;28;20057;-75
2021/04/28 04:57:47;;;;;;;14.15;10.10;;;10.30;99.90;;;10.57;45.82;100459.03;5073396;28;20051;-74
2021/04/28 05:00:16;;;;;;;13.88;10.10;;;10.30;99.90;;;10.65;45.82;100461.56;5073234;28;20483;-74
2021/04/28 05:02:44;;;;;;;15.75;10.38;;;10.40;99.90;;;10.62;45.99;100485.41;5072841;28;20105;-74
2021/04/28 05:05:13;;;;;;;15.77;10.20;;;10.40;99.90;;;10.76;45.83;100468.50;5071652;28;20045;-74
2021/04/28 05:07:42;;;;;;;16.08;9.77;;;10.50;99.90;;;10.68;45.67;100437.75;5073063;28;20064;-74
2021/04/28 05:10:13;;;;;;;14.35;10.40;;;10.50;99.90;;;10.92;45.59;100465.69;5073063;28;20090;-74
2021/04/28 05:12:45;;;;;;;14.52;10.40;;;10.60;99.90;;;10.98;45.23;100487.63;5105198;28;20044;-74
2021/04/28 05:15:15;;;;;;;14.57;9.65;;;10.70;99.90;;;11.04;45.33;100461.09;5072513;28;20523;-74
2021/04/28 05:17:43;;;;;;;15.02;10.30;;;10.80;99.90;;;11.15;45.57;100469.75;5072775;28;20048;-74
2021/04/28 05:20:13;;;;;;;12.60;10.02;;;10.90;99.90;;;11.24;45.16;100468.78;5072846;28;20118;-74
2021/04/28 05:22:41;;;;;;;12.95;10.27;;;11.00;99.90;;;11.20;45.12;100453.84;5072716;28;20047;-74
2021/04/28 05:25:30;;;;;;;17.08;10.32;;;11.00;99.90;;;11.26;44.88;100441.41;5072473;28;20078;-73
2021/04/28 05:27:58;;;;;;;17.55;9.88;;;11.20;99.90;;;11.57;44.58;100470.94;5072528;28;20051;-74
2021/04/28 05:30:26;;;;;;;12.40;9.27;;;11.30;99.90;;;11.65;44.09;100467.31;5072891;28;20070;-74
2021/04/28 05:32:54;;;;;;;14.52;10.05;;;11.40;99.90;;;11.78;44.35;100468.88;5072378;28;20072;-74
2021/04/28 05:35:22;;;;;;;12.80;9.15;;;11.60;99.90;;;11.88;44.04;100464.31;5072469;28;20051;-74
2021/04/28 05:37:51;;;;;;;16.67;11.15;;;11.70;99.90;;;12.07;43.92;100473.72;5072787;28;20110;-74
2021/04/28 05:40:19;;;;;;;14.68;9.75;;;11.70;99.90;;;12.14;43.16;100469.16;5072568;28;20048;-74
2021/04/28 05:42:47;;;;;;;11.55;9.30;;;11.90;99.90;;;12.29;43.29;100472.41;5070676;28;20044;-73
2021/04/28 05:45:16;;;;;;;15.77;10.15;;;12.00;99.90;;;12.34;42.73;100456.44;5071998;28;20516;-74
2021/04/28 05:47:44;;;;;;;14.20;9.82;;;12.10;99.90;;;12.47;42.72;100476.53;5071721;28;20037;-73
2021/04/28 05:50:14;;;;;;;14.32;10.18;;;12.20;99.90;;;12.61;42.39;100475.38;5072154;28;20057;-73
2021/04/28 05:52:42;;;;;;;12.15;9.65;;;12.30;99.90;;;12.65;42.27;100452.31;5072012;28;20048;-73
2021/04/28 05:55:12;;;;;;;15.02;9.77;;;12.50;99.90;;;12.97;42.08;100471.09;5071937;28;20064;-63
2021/04/28 05:57:40;;;;;;;12.35;9.05;;;12.60;99.90;;;13.08;41.99;100477.13;5072385;28;20048;-61
2021/04/28 06:00:11;;;;;;;16.30;9.23;;;12.80;99.90;;;13.38;41.69;100476.44;5072154;28;20123;-62
2021/04/28 06:02:42;;;;;;;14.85;9.20;;;13.00;99.90;;;13.50;41.05;100483.28;5071822;28;20044;-61
2021/04/28 06:05:11;;;;;;;12.40;9.10;;;13.20;99.90;;;13.47;40.52;100476.22;5071985;28;20094;-61
2021/04/28 06:07:39;;;;;;;12.90;9.23;;;13.20;99.90;;;13.46;40.43;100455.91;5072388;28;20135;-61
2021/04/28 06:10:15;;;;;;;12.63;9.07;;;13.30;99.90;;;13.54;40.18;100484.94;5072039;28;20456;-61
2021/04/28 06:12:43;;;;;;;12.18;9.45;;;13.30;99.90;;;13.56;40.23;100477.81;5072189;28;20032;-62
2021/04/28 06:15:12;;;;;;;16.88;10.13;;;13.30;99.90;;;13.49;40.44;100447.84;5071746;28;20494;-61
2021/04/28 06:17:40;;;;;;;11.40;9.63;;;13.30;99.90;;;13.64;39.91;100467.00;5071975;28;20055;-61
2021/04/28 06:20:11;;;;;;;13.25;8.82;;;13.40;99.90;;;13.62;40.28;100479.47;5072096;28;20064;-62
2021/04/28 06:22:38;;;;;;;12.07;9.55;;;13.30;99.90;;;13.57;40.12;100482.22;5072084;28;20056;-62
2021/04/28 06:25:07;;;;;;;17.45;9.68;;;13.30;99.90;;;13.63;39.77;100478.56;5072064;28;20131;-61
2021/04/28 06:27:37;;;;;;;14.07;10.20;;;13.30;99.90;;;13.21;40.78;100478.59;5071994;28;20411;-62
2021/04/28 06:30:07;;;;;;;13.50;9.70;;;13.00;99.90;;;12.91;40.80;100473.03;5071604;28;20048;-62
2021/04/28 06:32:34;;;;;;;14.02;9.63;;;12.90;99.90;;;13.02;40.76;100482.53;5071947;28;20083;-62
2021/04/28 06:35:04;;;;;;;12.98;9.45;;;12.80;99.90;;;12.84;41.29;100477.56;5072025;28;20397;-62
2021/04/28 06:37:31;;;;;;;13.40;9.93;;;12.60;99.90;;;12.83;40.91;100477.59;5072195;28;20057;-62
2021/04/28 06:39:59;;;;;;;16.75;10.15;;;12.60;99.90;;;12.79;41.25;100473.25;5071914;28;20474;-62
2021/04/28 06:42:26;;;;;;;13.25;9.30;;;12.50;99.90;;;12.47;42.64;100471.22;5071925;28;20040;-61
2021/04/28 06:44:55;;;;;;;14.32;10.40;;;12.30;99.90;;;12.97;42.73;100473.75;5071946;28;20114;-61
2021/04/28 06:47:22;;;;;;;15.60;10.50;;;12.60;99.90;;;13.31;41.79;100472.19;5071824;28;20041;-62
2021/04/28 06:49:51;;;;;;;14.10;10.10;;;12.90;99.90;;;13.45;41.63;100448.81;5071650;28;20453;-62
2021/04/28 06:52:19;;;;;;;13.75;10.32;;;13.20;99.90;;;13.76;40.89;100467.63;5071790;28;20040;-61
2021/04/28 06:54:46;;;;;;;14.73;10.73;;;13.40;99.90;;;13.99;40.64;100462.59;5071713;28;20124;-62
2021/04/28 06:57:13;;;;;;;11.25;9.57;;;13.70;99.90;;;13.94;40.42;100460.94;5070495;28;20049;-61
2021/04/28 06:59:41;;;;;;;12.10;9.85;;;13.70;99.90;;;13.79;40.01;100453.34;5088683;28;20419;-61
2021/04/28 07:02:10;;;;;;;16.05;9.93;;;13.60;99.90;;;14.04;40.24;100457.16;5075170;28;20041;-62
2021/04/28 07:04:41;;;;;;;13.70;10.02;;;13.70;99.90;;;14.01;41.00;100451.94;5075484;28;20051;-62
2021/04/28 07:07:08;;;;;;;13.77;10.02;;;13.80;99.90;;;14.27;40.45;100466.34;5074300;28;20133;-62
2021/04/28 07:09:36;;;;;;;12.93;10.25;;;14.00;99.90;;;14.38;39.49;100458.09;5090807;28;20064;-62
2021/04/28 07:12:03;;;;;;;12.15;10.43;;;14.10;99.90;;;14.21;39.88;100462.91;5075178;28;20102;-62
2021/04/28 07:14:32;;;;;;;12.48;9.68;;;14.00;99.90;;;14.21;40.32;100460.25;5075246;28;20060;-61
2021/04/28 07:16:59;;;;;;;11.27;9.55;;;14.00;99.90;;;14.52;39.51;100460.38;5074859;28;20048;-62
2021/04/28 07:19:27;;;;;;;14.38;10.48;;;14.20;99.90;;;14.75;39.09;100457.97;5075218;28;20131;-62
2021/04/28 07:21:55;;;;;;;12.95;9.82;;;14.40;99.90;;;14.84;39.28;100460.34;5074947;28;20082;-62
2021/04/28 07:24:24;;;;;;;12.57;10.02;;;14.50;99.90;;;15.03;39.32;100473.09;5075235;28;20489;-62
2021/04/28 07:26:53;;;;;;;14.30;9.75;;;14.70;99.90;;;15.19;38.36;100466.38;5074888;28;20450;-62
2021/04/28 07:29:21;;;;;;;19.65;10.77;;;14.90;99.90;;;14.49;38.49;100458.66;5075223;28;20516;-62
2021/04/28 07:31:50;;;;;;;16.17;10.30;;;14.50;99.90;;;14.69;39.48;100464.31;5090428;28;20116;-62
2021/04/28 07:34:17;;;;;;;12.75;9.85;;;14.40;99.90;;;15.00;38.88;100467.84;5074446;28;20048;-62
2021/04/28 07:36:46;;;;;;;31.90;20.92;;;14.70;99.90;;;15.27;38.76;100463.53;5074555;28;20036;-76
2021/04/28 07:39:14;;;;;;;24.42;17.48;;;14.90;99.90;;;15.48;37.82;100462.03;5074429;28;20048;-71
2021/04/28 07:41:41;;;;;;;12.10;10.45;;;15.10;99.90;;;15.68;37.26;100470.28;5074357;28;20164;-61
2021/04/28 07:44:09;;;;;;;14.73;9.63;;;15.40;99.90;;;15.73;36.75;100466.53;5074731;28;20059;-61
2021/04/28 07:46:36;;;;;;;15.07;9.65;;;15.50;99.90;;;15.84;36.98;100474.19;5074182;28;20093;-62
2021/04/28 07:49:04;;;;;;;15.52;10.50;;;15.60;99.90;;;15.84;35.84;100464.41;5072844;28;20063;-62
2021/04/28 07:51:32;;;;;;;19.35;9.95;;;15.60;99.90;;;15.99;36.10;100468.34;5074376;28;20516;-62
2021/04/28 07:54:06;;;;;;;14.43;10.18;;;15.70;99.90;;;16.06;36.23;100456.56;5073042;28;20404;-63
2021/04/28 07:56:34;;;;;;;11.50;9.82;;;15.80;99.90;;;16.14;35.67;100454.53;5072893;28;20156;-63
2021/04/28 07:59:02;;;;;;;13.05;10.07;;;15.90;99.90;;;16.05;35.75;100462.81;5074382;28;20052;-63
2021/04/28 08:01:29;;;;;;;12.05;10.35;;;15.80;99.90;;;15.87;35.70;100455.44;5074073;28;20036;-68
2021/04/28 08:03:58;;;;;;;15.13;10.32;;;15.70;99.90;;;15.34;35.04;100407.31;5074635;28;20151;-63
2021/04/28 08:06:25;;;;;;;12.98;9.70;;;15.50;99.90;;;15.31;36.21;100471.38;5074234;28;20059;-63
2021/04/28 08:08:53;;;;;;;15.00;10.52;;;15.20;99.90;;;15.35;36.62;100462.34;5073956;28;20419;-65
2021/04/28 08:11:22;;;;;;;13.27;10.32;;;15.10;99.90;;;15.01;36.50;100356.84;5073954;28;20036;-62
2021/04/28 08:13:50;;;;;;;10.88;9.77;;;15.20;99.90;;;15.83;36.21;100454.63;5073919;28;20385;-63
2021/04/28 08:16:19;;;;;;;20.13;10.02;;;15.50;99.90;;;15.93;36.83;100445.41;5074092;28;20064;-64
2021/04/28 08:18:46;;;;;;;17.05;10.52;;;15.60;99.90;;;16.15;36.11;100450.91;5073473;28;20142;-64
2021/04/28 08:21:15;;;;;;;13.35;9.77;;;15.90;99.90;;;15.96;35.91;100449.78;5073649;28;20052;-62
2021/04/28 08:23:43;;;;;;;13.35;10.50;;;15.80;99.90;;;15.15;37.58;100443.44;5073629;28;20052;-62
2021/04/28 08:26:11;;;;;;;19.10;10.70;;;15.20;99.90;;;14.51;38.97;100448.84;5073745;28;20048;-63
2021/04/28 08:28:42;;;;;;;14.70;11.00;;;14.50;99.90;;;14.36;39.01;100348.16;5073746;28;20045;-62
2021/04/28 08:31:10;;;;;;;13.90;10.98;;;14.50;99.90;;;15.43;38.44;100437.31;5073682;28;20397;-62
2021/04/28 08:33:39;;;;;;;15.30;10.88;;;15.00;99.90;;;15.89;38.14;100434.91;5073624;28;20044;-63
2021/04/28 08:36:08;;;;;;;14.20;10.60;;;15.50;99.90;;;16.25;37.11;100437.22;5073372;28;20040;-74
2021/04/28 08:38:37;;;;;;;13.88;10.95;;;15.90;99.90;;;16.39;36.65;100423.38;5072809;28;20493;-70
2021/04/28 08:41:08;;;;;;;11.38;10.05;;;16.10;99.90;;;16.45;35.84;100412.50;5072930;28;20065;-68
2021/04/28 08:43:37;;;;;;;23.73;11.38;;;16.20;99.90;;;16.45;35.09;100425.84;5073540;28;20047;-68
2021/04/28 08:46:06;;;;;;;13.55;10.75;;;16.20;99.90;;;16.43;35.00;100426.81;5073678;28;20087;-70
2021/04/28 08:48:35;;;;;;;13.68;10.82;;;16.20;99.90;;;16.43;34.89;100418.81;5071806;28;20048;-71
2021/04/28 08:51:03;;;;;;;80.68;56.13;;;16.20;99.90;;;16.28;35.48;100429.09;5105186;28;20060;-72
2021/04/28 08:53:35;;;;;;;35.72;26.85;;;16.10;99.90;;;16.46;35.60;100424.91;5073099;28;20044;-75
2021/04/28 08:56:08;;;;;;;64.95;44.75;;;16.20;99.90;;;16.56;36.27;100412.13;5072900;28;20052;-72
2021/04/28 08:58:36;;;;;;;15.25;11.85;;;16.30;99.90;;;16.52;34.96;100432.75;5073333;28;20040;-66
2021/04/28 09:01:05;;;;;;;15.05;10.85;;;16.30;99.90;;;16.53;36.28;100421.13;5072991;28;20509;-73
2021/04/28 09:03:41;;;;;;;16.17;11.82;;;16.30;99.90;;;16.49;35.45;100418.63;5071854;28;20044;-69
2021/04/28 09:06:33;;;;;;;14.15;10.90;;;16.20;99.90;;;16.69;35.28;100405.41;5073002;28;20135;-62
2021/04/28 09:09:06;;;;;;;15.82;10.30;;;16.40;99.90;;;16.67;34.29;100421.50;5072819;28;20040;-63
2021/04/28 09:11:44;;;;;;;13.50;10.35;;;16.40;99.90;;;16.81;33.97;100395.16;5072860;28;20044;-64
2021/04/28 09:14:15;;;;;;;18.00;11.63;;;16.60;99.90;;;16.58;33.92;100411.16;5072296;28;20453;-64
2021/04/28 09:16:46;;;;;;;13.93;10.82;;;16.50;99.90;;;16.54;34.54;100390.84;5088301;28;20393;-61
2021/04/28 09:19:36;;;;;;;;;;;16.40;99.90;;;16.83;35.94;100412.00;5072538;28;20059;-62
2021/04/28 09:22:39;;;;;;;15.75;10.93;;;16.60;99.90;;;17.06;34.91;100404.00;5069217;28;19920;-65
2021/04/28 09:25:41;;;;;;;13.40;11.02;;;16.80;99.90;;;17.13;34.71;100400.13;5072255;28;20129;-63
2021/04/28 09:28:38;;;;;;;11.70;10.27;;;16.90;99.90;;;17.40;35.35;100406.19;5088076;28;20088;-63
2021/04/28 09:31:16;;;;;;;19.83;10.82;;;17.10;99.90;;;17.48;34.69;100404.13;5072501;28;20041;-63
2021/04/28 09:33:54;;;;;;;16.10;11.35;;;17.20;99.90;;;17.29;34.39;100391.50;5072107;28;20094;-63
2021/04/28 09:36:28;;;;;;;13.32;10.60;;;17.10;99.90;;;17.07;33.55;100343.41;5072408;28;20057;-65
2021/04/28 09:39:00;;;;;;;15.30;11.20;;;17.10;99.90;;;17.31;33.12;100377.16;5072506;28;20048;-64
2021/04/28 09:41:37;;;;;;;16.50;10.63;;;17.10;99.90;;;17.07;34.74;100359.44;5072108;28;20044;-70
2021/04/28 09:44:31;;;;;;;13.35;11.43;;;16.90;99.90;;;16.98;34.90;100378.47;5072064;28;20060;-68
2021/04/28 09:47:06;;;;;;;20.02;11.30;;;16.80;99.90;;;17.31;34.18;100376.28;5071861;28;20039;-68
2021/04/28 09:49:53;;;;;;;15.40;11.43;;;17.00;99.90;;;16.94;33.35;100339.44;5072261;28;20060;-69
2021/04/28 09:52:42;;;;;;;12.90;10.85;;;17.00;99.90;;;17.26;33.21;100378.28;5072038;28;20045;-69
2021/04/28 09:55:12;;;;;;;18.70;11.40;;;17.00;99.90;;;16.59;34.91;100361.31;5071013;28;20131;-69
2021/04/28 09:57:41;;;;;;;13.90;11.23;;;16.70;99.90;;;16.36;36.21;100386.09;5104749;28;20048;-69
2021/04/28 10:00:16;;;;;;;12.48;11.20;;;16.10;99.90;;;16.33;36.32;100383.56;5072070;28;20070;-69
2021/04/28 10:02:52;;;;;;;15.38;12.23;;;16.00;99.90;;;16.14;36.35;100372.66;5072063;28;20075;-69
2021/04/28 10:05:27;;;;;;;13.05;11.15;;;16.00;99.90;;;16.54;36.06;100372.16;5072367;28;20048;-69
2021/04/28 10:08:09;;;;;;;16.10;11.88;;;16.20;99.90;;;16.93;35.79;100367.09;5071726;28;20118;-69
2021/04/28 10:10:38;;;;;;;14.07;12.07;;;16.50;99.90;;;17.03;34.94;100374.69;5071935;28;20048;-69
2021/04/28 10:13:06;;;;;;;16.02;11.43;;;16.70;99.90;;;16.90;36.35;100361.88;5072095;28;20048;-69
2021/04/28 10:15:35;;;;;;;13.75;11.43;;;16.60;99.90;;;16.77;37.02;100347.25;5072190;28;20047;-69
2021/04/28 10:18:06;;;;;;;14.85;11.65;;;16.60;99.90;;;16.27;37.48;100362.44;5072332;28;20052;-69
2021/04/28 10:20:37;;;;;;;15.98;12.15;;;16.10;99.90;;;16.64;36.64;100375.34;5071955;28;20048;-70
2021/04/28 10:23:05;;;;;;;;;;;16.30;99.90;;;16.95;35.66;100371.47;5070928;28;20098;-69
2021/04/28 10:25:33;;;;;;;14.98;12.32;;;16.60;99.90;;;17.07;35.44;100356.75;5071731;28;20297;-69